sensor_id;sensor_type;location;lat;lon;timestamp;P1;durP1;ratioP1;P2;durP2;ratioP2
42084;SDS011;27746;52.228;20.890;2023-02-15T00:01:07;52.45;;;26.55;;
42084;SDS011;27746;52.228;20.890;2023-02-15T00:03:36;48.08;;;24.98;;
42084;SDS011;27746;52.228;20.890;2023-02-15T00:06:03;49.20;;;25.77;;
42084;SDS011;27746;52.228;20.890;2023-02-15T00:08:30;57.30;;;28.02;;
42084;SDS011;27746;52.228;20.890;2023-02-15T00:11:04;55.42;;;28.45;;
42084;SDS011;27746;52.228;20.890;2023-02-15T00:13:32;53.45;;;26.45;;
42084;SDS011;27746;52.228;20.890;2023-02-15T00:16:01;53.85;;;27.00;;
42084;SDS011;27746;52.228;20.890;2023-02-15T00:18:28;55.08;;;26.65;;
42084;SDS011;27746;52.228;20.890;2023-02-15T00:20:56;51.03;;;25.55;;
42084;SDS011;27746;52.228;20.890;2023-02-15T00:23:24;51.92;;;24.92;;
42084;SDS011;27746;52.228;20.890;2023-02-15T00:26:02;51.33;;;27.08;;
42084;SDS011;27746;52.228;20.890;2023-02-15T00:28:29;58.92;;;27.88;;
42084;SDS011;27746;52.228;20.890;2023-02-15T00:31:01;55.55;;;28.30;;
42084;SDS011;27746;52.228;20.890;2023-02-15T00:33:28;58.08;;;26.88;;
42084;SDS011;27746;52.228;20.890;2023-02-15T00:35:58;53.58;;;26.17;;
42084;SDS011;27746;52.228;20.890;2023-02-15T00:38:25;54.78;;;27.35;;
42084;SDS011;27746;52.228;20.890;2023-02-15T00:40:53;54.83;;;27.38;;
42084;SDS011;27746;52.228;20.890;2023-02-15T00:43:20;60.85;;;27.20;;
42084;SDS011;27746;52.228;20.890;2023-02-15T00:45:47;56.55;;;29.77;;
42084;SDS011;27746;52.228;20.890;2023-02-15T00:48:14;60.63;;;29.90;;
42084;SDS011;27746;52.228;20.890;2023-02-15T00:50:41;54.35;;;26.23;;
42084;SDS011;27746;52.228;20.890;2023-02-15T00:53:12;58.45;;;29.88;;
42084;SDS011;27746;52.228;20.890;2023-02-15T00:55:40;58.03;;;26.42;;
42084;SDS011;27746;52.228;20.890;2023-02-15T00:58:07;57.53;;;27.10;;
42084;SDS011;27746;52.228;20.890;2023-02-15T01:00:35;52.38;;;26.65;;
42084;SDS011;27746;52.228;20.890;2023-02-15T01:03:02;52.72;;;26.20;;
42084;SDS011;27746;52.228;20.890;2023-02-15T01:05:29;57.40;;;28.50;;
42084;SDS011;27746;52.228;20.890;2023-02-15T01:07:57;60.22;;;29.50;;
42084;SDS011;27746;52.228;20.890;2023-02-15T01:10:26;56.42;;;28.27;;
42084;SDS011;27746;52.228;20.890;2023-02-15T01:12:53;59.38;;;29.70;;
42084;SDS011;27746;52.228;20.890;2023-02-15T01:15:21;59.03;;;29.48;;
42084;SDS011;27746;52.228;20.890;2023-02-15T01:17:48;57.20;;;28.73;;
42084;SDS011;27746;52.228;20.890;2023-02-15T01:20:18;57.97;;;28.17;;
42084;SDS011;27746;52.228;20.890;2023-02-15T01:22:46;52.90;;;27.10;;
42084;SDS011;27746;52.228;20.890;2023-02-15T01:25:15;57.15;;;27.15;;
42084;SDS011;27746;52.228;20.890;2023-02-15T01:27:43;61.38;;;28.30;;
42084;SDS011;27746;52.228;20.890;2023-02-15T01:30:11;64.72;;;31.13;;
42084;SDS011;27746;52.228;20.890;2023-02-15T01:32:39;66.80;;;30.40;;
42084;SDS011;27746;52.228;20.890;2023-02-15T01:35:06;60.22;;;29.75;;
42084;SDS011;27746;52.228;20.890;2023-02-15T01:37:34;55.85;;;27.88;;
42084;SDS011;27746;52.228;20.890;2023-02-15T01:40:01;55.08;;;28.23;;
42084;SDS011;27746;52.228;20.890;2023-02-15T01:42:29;58.38;;;27.60;;
42084;SDS011;27746;52.228;20.890;2023-02-15T01:44:58;55.13;;;27.88;;
42084;SDS011;27746;52.228;20.890;2023-02-15T01:47:27;58.50;;;27.38;;
42084;SDS011;27746;52.228;20.890;2023-02-15T01:49:58;60.05;;;29.75;;
42084;SDS011;27746;52.228;20.890;2023-02-15T01:52:26;58.88;;;29.88;;
42084;SDS011;27746;52.228;20.890;2023-02-15T01:54:54;54.15;;;26.67;;
42084;SDS011;27746;52.228;20.890;2023-02-15T01:57:22;57.35;;;26.63;;
42084;SDS011;27746;52.228;20.890;2023-02-15T01:59:52;54.97;;;25.83;;
42084;SDS011;27746;52.228;20.890;2023-02-15T02:02:21;57.17;;;27.35;;
42084;SDS011;27746;52.228;20.890;2023-02-15T02:04:50;58.08;;;28.27;;
42084;SDS011;27746;52.228;20.890;2023-02-15T02:07:19;53.33;;;27.27;;
42084;SDS011;27746;52.228;20.890;2023-02-15T02:09:47;54.63;;;27.08;;
42084;SDS011;27746;52.228;20.890;2023-02-15T02:12:14;52.38;;;26.65;;
42084;SDS011;27746;52.228;20.890;2023-02-15T02:14:41;53.58;;;27.05;;
42084;SDS011;27746;52.228;20.890;2023-02-15T02:17:10;58.22;;;27.13;;
42084;SDS011;27746;52.228;20.890;2023-02-15T02:19:56;57.05;;;27.10;;
42084;SDS011;27746;52.228;20.890;2023-02-15T02:22:38;55.40;;;26.67;;
42084;SDS011;27746;52.228;20.890;2023-02-15T02:25:12;54.20;;;26.23;;
42084;SDS011;27746;52.228;20.890;2023-02-15T02:27:44;53.00;;;24.25;;
42084;SDS011;27746;52.228;20.890;2023-02-15T02:30:30;54.40;;;25.80;;
42084;SDS011;27746;52.228;20.890;2023-02-15T02:35:47;57.65;;;26.48;;
42084;SDS011;27746;52.228;20.890;2023-02-15T02:38:17;55.13;;;24.25;;
42084;SDS011;27746;52.228;20.890;2023-02-15T02:40:50;51.37;;;24.70;;
42084;SDS011;27746;52.228;20.890;2023-02-15T02:43:20;53.83;;;26.38;;
42084;SDS011;27746;52.228;20.890;2023-02-15T02:45:50;51.97;;;25.42;;
42084;SDS011;27746;52.228;20.890;2023-02-15T02:48:20;49.80;;;22.70;;
42084;SDS011;27746;52.228;20.890;2023-02-15T02:50:49;53.75;;;26.70;;
42084;SDS011;27746;52.228;20.890;2023-02-15T02:53:17;55.92;;;24.70;;
42084;SDS011;27746;52.228;20.890;2023-02-15T02:55:45;54.78;;;25.63;;
42084;SDS011;27746;52.228;20.890;2023-02-15T02:58:14;51.25;;;26.42;;
42084;SDS011;27746;52.228;20.890;2023-02-15T03:00:44;48.35;;;23.38;;
42084;SDS011;27746;52.228;20.890;2023-02-15T03:03:13;50.53;;;24.30;;
42084;SDS011;27746;52.228;20.890;2023-02-15T03:05:44;50.42;;;23.52;;
42084;SDS011;27746;52.228;20.890;2023-02-15T03:08:13;53.53;;;24.60;;
42084;SDS011;27746;52.228;20.890;2023-02-15T03:10:46;48.13;;;24.08;;
42084;SDS011;27746;52.228;20.890;2023-02-15T03:13:14;48.92;;;23.23;;
42084;SDS011;27746;52.228;20.890;2023-02-15T03:15:42;51.63;;;24.77;;
42084;SDS011;27746;52.228;20.890;2023-02-15T03:18:28;60.35;;;25.20;;
42084;SDS011;27746;52.228;20.890;2023-02-15T03:20:57;53.33;;;24.15;;
42084;SDS011;27746;52.228;20.890;2023-02-15T03:23:27;63.30;;;25.42;;
42084;SDS011;27746;52.228;20.890;2023-02-15T03:25:56;53.67;;;25.85;;
42084;SDS011;27746;52.228;20.890;2023-02-15T03:28:26;50.95;;;25.85;;
42084;SDS011;27746;52.228;20.890;2023-02-15T03:30:55;50.20;;;24.60;;
42084;SDS011;27746;52.228;20.890;2023-02-15T03:33:25;55.28;;;24.70;;
42084;SDS011;27746;52.228;20.890;2023-02-15T03:35:54;51.60;;;26.25;;
42084;SDS011;27746;52.228;20.890;2023-02-15T03:38:25;55.67;;;26.38;;
42084;SDS011;27746;52.228;20.890;2023-02-15T03:40:56;48.33;;;24.38;;
42084;SDS011;27746;52.228;20.890;2023-02-15T03:43:37;50.75;;;24.70;;
42084;SDS011;27746;52.228;20.890;2023-02-15T03:46:06;50.17;;;23.98;;
42084;SDS011;27746;52.228;20.890;2023-02-15T03:48:35;50.00;;;25.35;;
42084;SDS011;27746;52.228;20.890;2023-02-15T03:51:04;50.10;;;24.00;;
42084;SDS011;27746;52.228;20.890;2023-02-15T03:53:49;50.53;;;24.00;;
42084;SDS011;27746;52.228;20.890;2023-02-15T03:56:19;47.13;;;24.75;;
42084;SDS011;27746;52.228;20.890;2023-02-15T03:58:46;53.50;;;25.48;;
42084;SDS011;27746;52.228;20.890;2023-02-15T04:01:33;46.40;;;23.23;;
42084;SDS011;27746;52.228;20.890;2023-02-15T04:04:19;47.17;;;23.10;;
42084;SDS011;27746;52.228;20.890;2023-02-15T04:06:47;57.65;;;28.88;;
42084;SDS011;27746;52.228;20.890;2023-02-15T04:09:14;51.58;;;24.00;;
42084;SDS011;27746;52.228;20.890;2023-02-15T04:12:00;43.63;;;23.13;;
42084;SDS011;27746;52.228;20.890;2023-02-15T04:14:28;47.03;;;21.90;;
42084;SDS011;27746;52.228;20.890;2023-02-15T04:17:13;40.17;;;20.30;;
42084;SDS011;27746;52.228;20.890;2023-02-15T04:19:40;48.45;;;22.77;;
42084;SDS011;27746;52.228;20.890;2023-02-15T04:22:24;40.70;;;21.65;;
42084;SDS011;27746;52.228;20.890;2023-02-15T04:25:09;42.65;;;19.63;;
42084;SDS011;27746;52.228;20.890;2023-02-15T04:27:39;37.88;;;19.23;;
42084;SDS011;27746;52.228;20.890;2023-02-15T04:30:06;40.75;;;21.52;;
42084;SDS011;27746;52.228;20.890;2023-02-15T04:32:34;39.58;;;20.13;;
42084;SDS011;27746;52.228;20.890;2023-02-15T04:35:01;37.30;;;19.35;;
42084;SDS011;27746;52.228;20.890;2023-02-15T04:37:29;36.03;;;17.73;;
42084;SDS011;27746;52.228;20.890;2023-02-15T04:39:56;41.28;;;19.63;;
42084;SDS011;27746;52.228;20.890;2023-02-15T04:42:23;49.63;;;22.98;;
42084;SDS011;27746;52.228;20.890;2023-02-15T04:44:52;51.45;;;24.45;;
42084;SDS011;27746;52.228;20.890;2023-02-15T04:47:19;35.95;;;19.45;;
42084;SDS011;27746;52.228;20.890;2023-02-15T04:49:46;34.72;;;18.38;;
42084;SDS011;27746;52.228;20.890;2023-02-15T04:52:14;42.65;;;19.77;;
42084;SDS011;27746;52.228;20.890;2023-02-15T04:54:42;39.83;;;18.73;;
42084;SDS011;27746;52.228;20.890;2023-02-15T04:57:09;37.30;;;17.95;;
42084;SDS011;27746;52.228;20.890;2023-02-15T04:59:36;39.95;;;21.23;;
42084;SDS011;27746;52.228;20.890;2023-02-15T05:02:05;36.95;;;19.67;;
42084;SDS011;27746;52.228;20.890;2023-02-15T05:04:32;39.38;;;20.80;;
42084;SDS011;27746;52.228;20.890;2023-02-15T05:06:59;43.13;;;20.08;;
42084;SDS011;27746;52.228;20.890;2023-02-15T05:09:26;39.90;;;17.58;;
42084;SDS011;27746;52.228;20.890;2023-02-15T05:11:53;39.40;;;18.70;;
42084;SDS011;27746;52.228;20.890;2023-02-15T05:14:21;33.72;;;19.33;;
42084;SDS011;27746;52.228;20.890;2023-02-15T05:16:48;38.38;;;18.08;;
42084;SDS011;27746;52.228;20.890;2023-02-15T05:19:16;36.38;;;19.35;;
42084;SDS011;27746;52.228;20.890;2023-02-15T05:21:48;34.38;;;19.27;;
42084;SDS011;27746;52.228;20.890;2023-02-15T05:24:15;43.67;;;20.50;;
42084;SDS011;27746;52.228;20.890;2023-02-15T05:27:00;36.53;;;18.90;;
42084;SDS011;27746;52.228;20.890;2023-02-15T05:29:45;36.00;;;18.70;;
42084;SDS011;27746;52.228;20.890;2023-02-15T05:32:12;35.78;;;19.02;;
42084;SDS011;27746;52.228;20.890;2023-02-15T05:34:41;36.67;;;19.08;;
42084;SDS011;27746;52.228;20.890;2023-02-15T05:37:08;39.10;;;18.55;;
42084;SDS011;27746;52.228;20.890;2023-02-15T05:39:35;40.28;;;19.23;;
42084;SDS011;27746;52.228;20.890;2023-02-15T05:42:02;45.97;;;20.52;;
42084;SDS011;27746;52.228;20.890;2023-02-15T05:44:30;37.22;;;19.33;;
42084;SDS011;27746;52.228;20.890;2023-02-15T05:46:57;36.35;;;17.92;;
42084;SDS011;27746;52.228;20.890;2023-02-15T05:49:25;33.08;;;17.50;;
42084;SDS011;27746;52.228;20.890;2023-02-15T05:51:53;35.35;;;18.92;;
42084;SDS011;27746;52.228;20.890;2023-02-15T05:54:21;36.88;;;18.58;;
42084;SDS011;27746;52.228;20.890;2023-02-15T05:56:48;40.47;;;20.42;;
42084;SDS011;27746;52.228;20.890;2023-02-15T05:59:15;34.08;;;17.98;;
42084;SDS011;27746;52.228;20.890;2023-02-15T06:01:42;35.55;;;18.55;;
42084;SDS011;27746;52.228;20.890;2023-02-15T06:04:09;40.95;;;19.40;;
42084;SDS011;27746;52.228;20.890;2023-02-15T06:06:36;40.53;;;20.80;;
42084;SDS011;27746;52.228;20.890;2023-02-15T06:09:05;43.25;;;20.05;;
42084;SDS011;27746;52.228;20.890;2023-02-15T06:11:32;39.88;;;19.63;;
42084;SDS011;27746;52.228;20.890;2023-02-15T06:13:59;40.80;;;20.85;;
42084;SDS011;27746;52.228;20.890;2023-02-15T06:16:26;41.63;;;20.48;;
42084;SDS011;27746;52.228;20.890;2023-02-15T06:18:54;44.25;;;19.77;;
42084;SDS011;27746;52.228;20.890;2023-02-15T06:21:21;39.20;;;19.00;;
42084;SDS011;27746;52.228;20.890;2023-02-15T06:23:48;38.63;;;20.75;;
42084;SDS011;27746;52.228;20.890;2023-02-15T06:26:17;35.63;;;17.60;;
42084;SDS011;27746;52.228;20.890;2023-02-15T06:28:44;38.45;;;18.33;;
42084;SDS011;27746;52.228;20.890;2023-02-15T06:31:11;39.08;;;20.02;;
42084;SDS011;27746;52.228;20.890;2023-02-15T06:33:38;42.60;;;19.55;;
42084;SDS011;27746;52.228;20.890;2023-02-15T06:36:06;36.20;;;17.98;;
42084;SDS011;27746;52.228;20.890;2023-02-15T06:38:33;36.80;;;17.23;;
42084;SDS011;27746;52.228;20.890;2023-02-15T06:41:00;38.70;;;19.92;;
42084;SDS011;27746;52.228;20.890;2023-02-15T06:43:29;35.60;;;16.40;;
42084;SDS011;27746;52.228;20.890;2023-02-15T06:45:56;39.40;;;18.38;;
42084;SDS011;27746;52.228;20.890;2023-02-15T06:48:23;36.20;;;18.50;;
42084;SDS011;27746;52.228;20.890;2023-02-15T06:50:51;35.83;;;17.92;;
42084;SDS011;27746;52.228;20.890;2023-02-15T06:53:18;34.10;;;17.63;;
42084;SDS011;27746;52.228;20.890;2023-02-15T06:55:45;36.15;;;17.38;;
42084;SDS011;27746;52.228;20.890;2023-02-15T06:58:12;34.83;;;18.30;;
42084;SDS011;27746;52.228;20.890;2023-02-15T07:00:41;36.92;;;18.30;;
42084;SDS011;27746;52.228;20.890;2023-02-15T07:03:08;36.08;;;18.15;;
42084;SDS011;27746;52.228;20.890;2023-02-15T07:05:35;31.98;;;17.25;;
42084;SDS011;27746;52.228;20.890;2023-02-15T07:08:04;38.83;;;19.10;;
42084;SDS011;27746;52.228;20.890;2023-02-15T07:10:31;37.97;;;19.50;;
42084;SDS011;27746;52.228;20.890;2023-02-15T07:12:58;37.65;;;18.65;;
42084;SDS011;27746;52.228;20.890;2023-02-15T07:15:24;45.92;;;19.00;;
42084;SDS011;27746;52.228;20.890;2023-02-15T07:17:56;33.50;;;17.83;;
42084;SDS011;27746;52.228;20.890;2023-02-15T07:20:24;30.95;;;17.38;;
42084;SDS011;27746;52.228;20.890;2023-02-15T07:22:51;37.65;;;18.08;;
42084;SDS011;27746;52.228;20.890;2023-02-15T07:25:19;41.10;;;18.75;;
42084;SDS011;27746;52.228;20.890;2023-02-15T07:27:46;39.08;;;19.33;;
42084;SDS011;27746;52.228;20.890;2023-02-15T07:30:16;40.97;;;19.60;;
42084;SDS011;27746;52.228;20.890;2023-02-15T07:32:43;40.38;;;20.10;;
42084;SDS011;27746;52.228;20.890;2023-02-15T07:35:29;43.10;;;21.33;;
42084;SDS011;27746;52.228;20.890;2023-02-15T07:37:56;45.47;;;21.02;;
42084;SDS011;27746;52.228;20.890;2023-02-15T07:40:24;54.63;;;24.73;;
42084;SDS011;27746;52.228;20.890;2023-02-15T07:42:51;50.65;;;22.40;;
42084;SDS011;27746;52.228;20.890;2023-02-15T07:45:19;47.10;;;21.50;;
42084;SDS011;27746;52.228;20.890;2023-02-15T07:47:47;50.95;;;21.63;;
42084;SDS011;27746;52.228;20.890;2023-02-15T07:50:14;43.58;;;22.83;;
42084;SDS011;27746;52.228;20.890;2023-02-15T07:52:42;44.30;;;20.25;;
42084;SDS011;27746;52.228;20.890;2023-02-15T07:55:10;44.33;;;21.75;;
42084;SDS011;27746;52.228;20.890;2023-02-15T07:57:41;38.33;;;19.00;;
42084;SDS011;27746;52.228;20.890;2023-02-15T08:00:12;46.22;;;21.92;;
42084;SDS011;27746;52.228;20.890;2023-02-15T08:02:40;43.55;;;20.27;;
42084;SDS011;27746;52.228;20.890;2023-02-15T08:05:07;40.60;;;18.98;;
42084;SDS011;27746;52.228;20.890;2023-02-15T08:07:34;40.80;;;20.27;;
42084;SDS011;27746;52.228;20.890;2023-02-15T08:10:03;44.47;;;19.67;;
42084;SDS011;27746;52.228;20.890;2023-02-15T08:12:31;39.70;;;18.83;;
42084;SDS011;27746;52.228;20.890;2023-02-15T08:14:58;40.30;;;18.70;;
42084;SDS011;27746;52.228;20.890;2023-02-15T08:17:25;41.78;;;19.20;;
42084;SDS011;27746;52.228;20.890;2023-02-15T08:19:52;38.58;;;19.55;;
42084;SDS011;27746;52.228;20.890;2023-02-15T08:22:20;41.22;;;19.75;;
42084;SDS011;27746;52.228;20.890;2023-02-15T08:24:47;40.55;;;18.90;;
42084;SDS011;27746;52.228;20.890;2023-02-15T08:27:15;43.47;;;19.92;;
42084;SDS011;27746;52.228;20.890;2023-02-15T08:29:42;37.80;;;17.20;;
42084;SDS011;27746;52.228;20.890;2023-02-15T08:32:10;33.42;;;17.55;;
42084;SDS011;27746;52.228;20.890;2023-02-15T08:34:38;38.08;;;19.08;;
42084;SDS011;27746;52.228;20.890;2023-02-15T08:37:05;35.92;;;17.85;;
42084;SDS011;27746;52.228;20.890;2023-02-15T08:39:33;42.90;;;21.30;;
42084;SDS011;27746;52.228;20.890;2023-02-15T08:42:00;41.25;;;19.58;;
42084;SDS011;27746;52.228;20.890;2023-02-15T08:44:31;39.13;;;18.23;;
42084;SDS011;27746;52.228;20.890;2023-02-15T08:46:59;42.20;;;18.45;;
42084;SDS011;27746;52.228;20.890;2023-02-15T08:49:28;38.88;;;18.80;;
42084;SDS011;27746;52.228;20.890;2023-02-15T08:51:55;33.60;;;17.17;;
42084;SDS011;27746;52.228;20.890;2023-02-15T08:54:22;36.60;;;16.75;;
42084;SDS011;27746;52.228;20.890;2023-02-15T08:56:50;35.53;;;16.27;;
42084;SDS011;27746;52.228;20.890;2023-02-15T08:59:17;35.67;;;15.63;;
42084;SDS011;27746;52.228;20.890;2023-02-15T09:01:47;36.03;;;17.10;;
42084;SDS011;27746;52.228;20.890;2023-02-15T09:04:14;33.42;;;16.73;;
42084;SDS011;27746;52.228;20.890;2023-02-15T09:06:42;35.33;;;16.42;;
42084;SDS011;27746;52.228;20.890;2023-02-15T09:09:10;38.70;;;17.80;;
42084;SDS011;27746;52.228;20.890;2023-02-15T09:11:38;42.13;;;18.23;;
42084;SDS011;27746;52.228;20.890;2023-02-15T09:14:06;38.33;;;17.60;;
42084;SDS011;27746;52.228;20.890;2023-02-15T09:16:34;40.85;;;18.58;;
42084;SDS011;27746;52.228;20.890;2023-02-15T09:19:03;40.13;;;18.10;;
42084;SDS011;27746;52.228;20.890;2023-02-15T09:21:31;36.58;;;15.02;;
42084;SDS011;27746;52.228;20.890;2023-02-15T09:23:59;35.20;;;16.05;;
42084;SDS011;27746;52.228;20.890;2023-02-15T09:26:26;38.08;;;17.33;;
42084;SDS011;27746;52.228;20.890;2023-02-15T09:28:54;39.85;;;18.25;;
42084;SDS011;27746;52.228;20.890;2023-02-15T09:31:24;46.75;;;18.85;;
42084;SDS011;27746;52.228;20.890;2023-02-15T09:33:51;37.50;;;17.65;;
42084;SDS011;27746;52.228;20.890;2023-02-15T09:36:21;33.65;;;15.60;;
42084;SDS011;27746;52.228;20.890;2023-02-15T09:38:53;36.75;;;17.05;;
42084;SDS011;27746;52.228;20.890;2023-02-15T09:41:30;39.55;;;18.45;;
42084;SDS011;27746;52.228;20.890;2023-02-15T09:44:01;37.63;;;15.45;;
42084;SDS011;27746;52.228;20.890;2023-02-15T09:46:40;34.40;;;16.20;;
42084;SDS011;27746;52.228;20.890;2023-02-15T09:49:12;34.45;;;16.25;;
42084;SDS011;27746;52.228;20.890;2023-02-15T09:51:54;32.45;;;14.05;;
42084;SDS011;27746;52.228;20.890;2023-02-15T09:54:29;35.25;;;15.85;;
42084;SDS011;27746;52.228;20.890;2023-02-15T09:56:59;34.10;;;16.42;;
42084;SDS011;27746;52.228;20.890;2023-02-15T09:59:30;34.20;;;14.88;;
42084;SDS011;27746;52.228;20.890;2023-02-15T10:02:03;33.78;;;15.65;;
42084;SDS011;27746;52.228;20.890;2023-02-15T10:04:40;31.50;;;15.30;;
42084;SDS011;27746;52.228;20.890;2023-02-15T10:07:13;40.38;;;16.50;;
42084;SDS011;27746;52.228;20.890;2023-02-15T10:09:48;37.88;;;16.02;;
42084;SDS011;27746;52.228;20.890;2023-02-15T10:12:25;39.63;;;17.58;;
42084;SDS011;27746;52.228;20.890;2023-02-15T10:14:56;43.40;;;18.23;;
42084;SDS011;27746;52.228;20.890;2023-02-15T10:17:33;43.90;;;19.27;;
42084;SDS011;27746;52.228;20.890;2023-02-15T10:20:06;43.90;;;19.75;;
42084;SDS011;27746;52.228;20.890;2023-02-15T10:22:40;42.42;;;16.73;;
42084;SDS011;27746;52.228;20.890;2023-02-15T10:25:18;34.53;;;17.00;;
42084;SDS011;27746;52.228;20.890;2023-02-15T10:27:48;36.35;;;16.77;;
42084;SDS011;27746;52.228;20.890;2023-02-15T10:30:16;35.55;;;16.63;;
42084;SDS011;27746;52.228;20.890;2023-02-15T10:32:48;38.38;;;15.90;;
42084;SDS011;27746;52.228;20.890;2023-02-15T10:35:19;36.92;;;16.75;;
42084;SDS011;27746;52.228;20.890;2023-02-15T10:37:53;34.85;;;16.67;;
42084;SDS011;27746;52.228;20.890;2023-02-15T10:40:25;27.75;;;14.93;;
42084;SDS011;27746;52.228;20.890;2023-02-15T10:43:03;25.55;;;12.50;;
42084;SDS011;27746;52.228;20.890;2023-02-15T10:45:35;31.73;;;15.40;;
42084;SDS011;27746;52.228;20.890;2023-02-15T10:48:08;31.17;;;16.05;;
42084;SDS011;27746;52.228;20.890;2023-02-15T10:50:43;31.55;;;14.88;;
42084;SDS011;27746;52.228;20.890;2023-02-15T10:53:16;27.08;;;14.02;;
42084;SDS011;27746;52.228;20.890;2023-02-15T10:55:50;30.20;;;14.18;;
42084;SDS011;27746;52.228;20.890;2023-02-15T10:58:22;32.03;;;14.55;;
42084;SDS011;27746;52.228;20.890;2023-02-15T11:00:52;31.23;;;15.13;;
42084;SDS011;27746;52.228;20.890;2023-02-15T11:03:28;35.93;;;15.70;;
42084;SDS011;27746;52.228;20.890;2023-02-15T11:06:00;34.03;;;16.58;;
42084;SDS011;27746;52.228;20.890;2023-02-15T11:08:31;34.17;;;15.82;;
42084;SDS011;27746;52.228;20.890;2023-02-15T11:10:59;36.22;;;15.57;;
42084;SDS011;27746;52.228;20.890;2023-02-15T11:13:29;30.92;;;13.32;;
42084;SDS011;27746;52.228;20.890;2023-02-15T11:16:00;28.27;;;14.57;;
42084;SDS011;27746;52.228;20.890;2023-02-15T11:18:31;30.20;;;14.82;;
42084;SDS011;27746;52.228;20.890;2023-02-15T11:21:00;36.30;;;16.05;;
42084;SDS011;27746;52.228;20.890;2023-02-15T11:23:28;32.65;;;16.58;;
42084;SDS011;27746;52.228;20.890;2023-02-15T11:25:58;31.45;;;14.90;;
42084;SDS011;27746;52.228;20.890;2023-02-15T11:28:28;29.52;;;14.55;;
42084;SDS011;27746;52.228;20.890;2023-02-15T11:30:57;32.33;;;15.10;;
42084;SDS011;27746;52.228;20.890;2023-02-15T11:33:27;29.65;;;14.43;;
42084;SDS011;27746;52.228;20.890;2023-02-15T11:35:57;31.20;;;16.40;;
42084;SDS011;27746;52.228;20.890;2023-02-15T11:38:27;34.95;;;15.63;;
42084;SDS011;27746;52.228;20.890;2023-02-15T11:40:56;34.13;;;16.67;;
42084;SDS011;27746;52.228;20.890;2023-02-15T11:43:26;37.10;;;18.08;;
42084;SDS011;27746;52.228;20.890;2023-02-15T11:45:55;35.75;;;17.35;;
42084;SDS011;27746;52.228;20.890;2023-02-15T11:48:22;42.05;;;19.38;;
42084;SDS011;27746;52.228;20.890;2023-02-15T11:50:49;33.90;;;15.95;;
42084;SDS011;27746;52.228;20.890;2023-02-15T11:53:17;35.45;;;17.70;;
42084;SDS011;27746;52.228;20.890;2023-02-15T11:55:47;42.65;;;17.80;;
42084;SDS011;27746;52.228;20.890;2023-02-15T11:58:20;44.47;;;18.85;;
42084;SDS011;27746;52.228;20.890;2023-02-15T12:00:50;36.28;;;18.50;;
42084;SDS011;27746;52.228;20.890;2023-02-15T12:03:21;41.97;;;18.45;;
42084;SDS011;27746;52.228;20.890;2023-02-15T12:05:49;39.15;;;18.95;;
42084;SDS011;27746;52.228;20.890;2023-02-15T12:08:20;46.50;;;20.05;;
42084;SDS011;27746;52.228;20.890;2023-02-15T12:10:52;43.47;;;19.63;;
42084;SDS011;27746;52.228;20.890;2023-02-15T12:13:25;43.88;;;19.83;;
42084;SDS011;27746;52.228;20.890;2023-02-15T12:15:54;45.45;;;21.30;;
42084;SDS011;27746;52.228;20.890;2023-02-15T12:18:33;44.55;;;20.77;;
42084;SDS011;27746;52.228;20.890;2023-02-15T12:21:02;45.20;;;21.73;;
42084;SDS011;27746;52.228;20.890;2023-02-15T12:23:29;47.28;;;21.00;;
42084;SDS011;27746;52.228;20.890;2023-02-15T12:25:58;46.25;;;21.35;;
42084;SDS011;27746;52.228;20.890;2023-02-15T12:28:30;63.53;;;25.17;;
42084;SDS011;27746;52.228;20.890;2023-02-15T12:31:01;50.75;;;21.67;;
42084;SDS011;27746;52.228;20.890;2023-02-15T12:33:29;50.15;;;23.05;;
42084;SDS011;27746;52.228;20.890;2023-02-15T12:35:57;54.05;;;22.67;;
42084;SDS011;27746;52.228;20.890;2023-02-15T12:38:26;42.35;;;20.42;;
42084;SDS011;27746;52.228;20.890;2023-02-15T12:40:58;50.00;;;21.45;;
42084;SDS011;27746;52.228;20.890;2023-02-15T12:43:26;53.83;;;23.38;;
42084;SDS011;27746;52.228;20.890;2023-02-15T12:45:53;44.45;;;22.17;;
42084;SDS011;27746;52.228;20.890;2023-02-15T12:48:41;48.58;;;23.27;;
42084;SDS011;27746;52.228;20.890;2023-02-15T12:51:08;52.75;;;22.58;;
42084;SDS011;27746;52.228;20.890;2023-02-15T12:53:36;50.80;;;22.83;;
42084;SDS011;27746;52.228;20.890;2023-02-15T12:56:04;51.33;;;23.80;;
42084;SDS011;27746;52.228;20.890;2023-02-15T12:58:32;43.08;;;20.63;;
42084;SDS011;27746;52.228;20.890;2023-02-15T13:01:04;41.30;;;19.80;;
42084;SDS011;27746;52.228;20.890;2023-02-15T13:03:50;47.05;;;22.90;;
42084;SDS011;27746;52.228;20.890;2023-02-15T13:06:19;44.88;;;20.60;;
42084;SDS011;27746;52.228;20.890;2023-02-15T13:08:47;48.47;;;21.55;;
42084;SDS011;27746;52.228;20.890;2023-02-15T13:11:19;46.38;;;20.65;;
42084;SDS011;27746;52.228;20.890;2023-02-15T13:13:47;39.67;;;18.25;;
42084;SDS011;27746;52.228;20.890;2023-02-15T13:16:26;46.15;;;20.17;;
42084;SDS011;27746;52.228;20.890;2023-02-15T13:18:56;51.28;;;23.10;;
42084;SDS011;27746;52.228;20.890;2023-02-15T13:21:24;47.05;;;21.77;;
42084;SDS011;27746;52.228;20.890;2023-02-15T13:23:53;49.20;;;22.23;;
42084;SDS011;27746;52.228;20.890;2023-02-15T13:26:26;53.03;;;25.00;;
42084;SDS011;27746;52.228;20.890;2023-02-15T13:28:58;49.92;;;23.20;;
42084;SDS011;27746;52.228;20.890;2023-02-15T13:31:28;54.78;;;24.35;;
42084;SDS011;27746;52.228;20.890;2023-02-15T13:34:02;52.17;;;24.27;;
42084;SDS011;27746;52.228;20.890;2023-02-15T13:36:30;52.53;;;22.55;;
42084;SDS011;27746;52.228;20.890;2023-02-15T13:39:07;50.45;;;24.83;;
42084;SDS011;27746;52.228;20.890;2023-02-15T13:41:41;47.00;;;21.92;;
42084;SDS011;27746;52.228;20.890;2023-02-15T13:44:15;47.58;;;21.88;;
42084;SDS011;27746;52.228;20.890;2023-02-15T13:46:49;46.95;;;23.23;;
42084;SDS011;27746;52.228;20.890;2023-02-15T13:49:24;44.17;;;21.52;;
42084;SDS011;27746;52.228;20.890;2023-02-15T13:51:57;55.28;;;22.85;;
42084;SDS011;27746;52.228;20.890;2023-02-15T13:54:36;51.65;;;22.15;;
42084;SDS011;27746;52.228;20.890;2023-02-15T13:57:08;54.90;;;24.17;;
42084;SDS011;27746;52.228;20.890;2023-02-15T13:59:43;53.58;;;23.73;;
42084;SDS011;27746;52.228;20.890;2023-02-15T14:05:02;60.72;;;24.27;;
42084;SDS011;27746;52.228;20.890;2023-02-15T14:07:33;52.95;;;24.15;;
42084;SDS011;27746;52.228;20.890;2023-02-15T14:10:13;62.08;;;25.42;;
42084;SDS011;27746;52.228;20.890;2023-02-15T14:12:49;56.58;;;24.75;;
42084;SDS011;27746;52.228;20.890;2023-02-15T14:15:21;53.78;;;24.98;;
42084;SDS011;27746;52.228;20.890;2023-02-15T14:17:54;54.95;;;23.45;;
42084;SDS011;27746;52.228;20.890;2023-02-15T14:20:24;52.88;;;23.08;;
42084;SDS011;27746;52.228;20.890;2023-02-15T14:22:54;51.08;;;22.98;;
42084;SDS011;27746;52.228;20.890;2023-02-15T14:25:27;56.85;;;24.05;;
42084;SDS011;27746;52.228;20.890;2023-02-15T14:27:56;50.08;;;22.23;;
42084;SDS011;27746;52.228;20.890;2023-02-15T14:30:29;53.42;;;25.08;;